Time;durP1;ratioP1;P1;durP2;ratioP2;P2;SDS_P1;SDS_P2;PMS_P1;PMS_P2;Temp;Humidity;BMP_temperature;BMP_pressure;BME280_temperature;BME280_humidity;BME280_pressure;Samples;Min_cycle;Max_cycle;Signal;HPM_P1;HPM_P2
2024/02/11 00:01:35;;;;;;;14.03;8.50;;;6.50;99.90;;;;;;6219835;23;20028;-81
2024/02/11 00:04:02;;;;;;;12.43;7.80;;;6.50;99.90;;;;;;6218929;23;20014;-82
2024/02/11 00:06:28;;;;;;;12.77;8.63;;;6.50;99.90;;;;;;6219732;23;20004;-81
2024/02/11 00:08:54;;;;;;;11.80;7.30;;;6.50;99.90;;;;;;6220120;23;20485;-81
2024/02/11 00:11:19;;;;;;;14.03;7.87;;;6.50;99.90;;;;;;6219291;23;20072;-81
2024/02/11 00:13:45;;;;;;;14.33;8.23;;;6.50;99.90;;;;;;6219488;23;20012;-82
2024/02/11 00:16:11;;;;;;;14.10;8.10;;;6.60;99.90;;;;;;6218505;23;20070;-81
2024/02/11 00:18:37;;;;;;;16.40;9.07;;;6.60;99.90;;;;;;6220074;23;20008;-82
2024/02/11 00:21:04;;;;;;;11.13;7.37;;;6.60;99.90;;;;;;6219259;23;20007;-81
2024/02/11 00:23:30;;;;;;;23.40;9.97;;;6.60;99.90;;;;;;6219377;23;20005;-81
2024/02/11 00:25:56;;;;;;;16.83;7.77;;;6.70;99.90;;;;;;6218625;23;20027;-81
2024/02/11 00:28:22;;;;;;;13.50;8.00;;;6.70;99.90;;;;;;6219334;23;20083;-81
2024/02/11 00:30:50;;;;;;;12.27;7.57;;;6.70;99.90;;;;;;6219344;23;20423;-81
2024/02/11 00:33:19;;;;;;;10.83;6.87;;;6.80;99.90;;;;;;6219071;23;20059;-81
2024/02/11 00:35:45;;;;;;;13.00;6.60;;;6.80;99.90;;;;;;6219097;23;20012;-81
2024/02/11 00:38:13;;;;;;;12.63;6.33;;;6.80;99.90;;;;;;6218470;23;20008;-81
2024/02/11 00:40:38;;;;;;;9.83;6.27;;;6.90;99.90;;;;;;6219823;23;20004;-81
2024/02/11 00:43:07;;;;;;;11.00;6.00;;;7.00;99.90;;;;;;6218859;23;20304;-81
2024/02/11 00:45:32;;;;;;;10.77;5.83;;;7.00;99.90;;;;;;6218569;23;20027;-81
2024/02/11 00:48:02;;;;;;;10.23;5.17;;;7.10;99.90;;;;;;6218738;23;20036;-81
2024/02/11 00:50:31;;;;;;;11.90;5.20;;;7.20;99.90;;;;;;6219983;23;20079;-81
2024/02/11 00:52:57;;;;;;;8.17;4.60;;;7.40;99.90;;;;;;6219075;23;20446;-82
2024/02/11 00:55:22;;;;;;;10.90;5.20;;;7.60;99.90;;;;;;6218317;23;20001;-81
2024/02/11 00:57:49;;;;;;;9.27;5.17;;;7.70;99.90;;;;;;6218104;23;20070;-81
2024/02/11 01:00:15;;;;;;;7.37;4.80;;;7.80;99.90;;;;;;6219618;23;20008;-81
2024/02/11 01:02:42;;;;;;;11.57;5.00;;;7.90;99.90;;;;;;6219496;23;20005;-81
2024/02/11 01:05:08;;;;;;;7.93;4.60;;;8.00;99.90;;;;;;6219195;23;19997;-81
2024/02/11 01:07:36;;;;;;;8.97;4.60;;;8.10;99.90;;;;;;6217534;23;20533;-81
2024/02/11 01:10:01;;;;;;;10.40;5.20;;;8.20;99.90;;;;;;6218977;23;20083;-82
2024/02/11 01:12:28;;;;;;;10.57;5.17;;;8.30;99.90;;;;;;6218919;23;20000;-81
2024/02/11 01:14:56;;;;;;;8.60;5.17;;;8.40;99.90;;;;;;6219191;23;20339;-83
2024/02/11 01:17:23;;;;;;;7.10;4.90;;;8.50;99.90;;;;;;6219666;23;20063;-81
2024/02/11 01:19:49;;;;;;;7.50;5.07;;;8.60;99.90;;;;;;6218652;23;20016;-82
2024/02/11 01:22:15;;;;;;;10.07;5.40;;;8.60;99.90;;;;;;6219667;23;20004;-82
2024/02/11 01:24:41;;;;;;;8.70;5.17;;;8.70;99.90;;;;;;6218077;23;20004;-81
2024/02/11 01:27:08;;;;;;;8.50;5.33;;;8.80;99.90;;;;;;6219405;23;20431;-81
2024/02/11 01:29:35;;;;;;;8.57;5.90;;;8.80;99.90;;;;;;6218632;23;20013;-81
2024/02/11 01:32:01;;;;;;;9.93;5.53;;;8.80;99.90;;;;;;6218847;23;20013;-81
2024/02/11 01:34:27;;;;;;;7.63;5.50;;;8.90;99.90;;;;;;6218445;23;19997;-82
2024/02/11 01:36:52;;;;;;;8.33;5.40;;;9.00;99.90;;;;;;6218614;23;20386;-81
2024/02/11 01:39:19;;;;;;;7.63;5.43;;;9.10;99.90;;;;;;6219127;23;20455;-81
2024/02/11 01:41:44;;;;;;;8.53;5.83;;;9.10;99.90;;;;;;6218967;23;20005;-81
2024/02/11 01:44:12;;;;;;;9.10;6.10;;;9.10;99.90;;;;;;6218475;23;20451;-81
2024/02/11 01:46:38;;;;;;;9.43;5.90;;;9.00;99.90;;;;;;6219294;23;20072;-82
2024/02/11 01:49:04;;;;;;;9.57;5.63;;;9.00;99.90;;;;;;6219996;23;20023;-81
2024/02/11 01:51:33;;;;;;;9.37;6.13;;;9.10;99.90;;;;;;6218883;23;19996;-81
2024/02/11 01:53:59;;;;;;;9.07;5.73;;;9.10;99.90;;;;;;6218887;23;20009;-82
2024/02/11 01:56:25;;;;;;;10.27;5.63;;;9.10;99.90;;;;;;6219422;23;20004;-81
2024/02/11 01:58:51;;;;;;;11.17;6.53;;;9.10;99.90;;;;;;6219588;23;20056;-81
2024/02/11 02:01:21;;;;;;;8.67;6.00;;;9.10;99.90;;;;;;6219366;23;20433;-82
2024/02/11 02:03:48;;;;;;;9.30;6.20;;;9.10;99.90;;;;;;6220854;23;20015;-82
2024/02/11 02:06:16;;;;;;;10.87;7.03;;;9.00;99.90;;;;;;6222153;23;20023;-81
2024/02/11 02:08:42;;;;;;;10.60;6.97;;;9.00;99.90;;;;;;6221052;23;20000;-81
2024/02/11 02:11:09;;;;;;;9.20;6.37;;;9.00;99.90;;;;;;6221692;23;20005;-81
2024/02/11 02:13:35;;;;;;;7.77;6.30;;;9.00;99.90;;;;;;6220874;23;20005;-82
2024/02/11 02:16:00;;;;;;;10.03;6.40;;;8.90;99.90;;;;;;6220955;23;20474;-81
2024/02/11 02:18:28;;;;;;;11.33;6.50;;;9.00;99.90;;;;;;6221343;23;20025;-81
2024/02/11 02:20:53;;;;;;;9.57;6.67;;;8.90;99.90;;;;;;6221274;23;20005;-81
2024/02/11 02:23:19;;;;;;;11.33;7.10;;;8.90;99.90;;;;;;6221082;23;20007;-81
2024/02/11 02:25:45;;;;;;;11.37;7.53;;;8.90;99.90;;;;;;6221099;23;20088;-81
2024/02/11 02:28:11;;;;;;;11.23;7.10;;;8.90;99.90;;;;;;6220206;23;20013;-82
2024/02/11 02:30:36;;;;;;;10.47;7.30;;;8.80;99.90;;;;;;6221455;23;20009;-82
2024/02/11 02:33:02;;;;;;;11.80;7.80;;;8.80;99.90;;;;;;6220587;23;20040;-81
2024/02/11 02:35:27;;;;;;;13.27;8.73;;;8.90;99.90;;;;;;6194082;23;20000;-82
2024/02/11 02:37:53;;;;;;;10.00;6.80;;;8.80;99.90;;;;;;6221326;23;20004;-82
2024/02/11 02:40:24;;;;;;;11.63;7.70;;;8.90;99.90;;;;;;6221027;23;20403;-81
2024/02/11 02:42:50;;;;;;;11.93;8.53;;;8.80;99.90;;;;;;6220909;23;20462;-82
2024/02/11 02:45:16;;;;;;;11.50;7.50;;;8.80;99.90;;;;;;6221156;23;20005;-82
2024/02/11 02:47:41;;;;;;;12.97;8.17;;;8.80;99.90;;;;;;6221016;23;20103;-82
2024/02/11 02:50:07;;;;;;;14.23;8.17;;;8.70;99.90;;;;;;6220673;23;20004;-81
2024/02/11 02:52:36;;;;;;;11.97;8.43;;;8.70;99.90;;;;;;6221331;23;20009;-81
2024/02/11 02:55:05;;;;;;;12.80;8.33;;;8.70;99.90;;;;;;6220856;23;20001;-82
2024/02/11 02:57:31;;;;;;;12.20;9.27;;;8.70;99.90;;;;;;6220644;23;20471;-82
2024/02/11 02:59:57;;;;;;;15.53;10.10;;;8.70;99.90;;;;;;6221997;23;20048;-82
2024/02/11 03:02:22;;;;;;;13.13;9.10;;;8.70;99.90;;;;;;6221138;23;20001;-82
2024/02/11 03:04:48;;;;;;;13.33;9.63;;;8.70;99.90;;;;;;6220756;23;20004;-82
2024/02/11 03:07:13;;;;;;;14.47;10.27;;;8.70;99.90;;;;;;6221960;23;20004;-82
2024/02/11 03:09:39;;;;;;;12.57;10.33;;;8.70;99.90;;;;;;6221566;23;19997;-82
2024/02/11 03:12:05;;;;;;;14.47;9.67;;;8.70;99.90;;;;;;6220716;23;20011;-83
2024/02/11 03:14:31;;;;;;;14.40;10.37;;;8.70;99.90;;;;;;6221113;23;20004;-83
2024/02/11 03:16:57;;;;;;;13.90;10.33;;;8.70;99.90;;;;;;6220210;23;20013;-82
2024/02/11 03:19:22;;;;;;;14.73;10.43;;;8.70;99.90;;;;;;6221433;23;20000;-82
2024/02/11 03:21:49;;;;;;;14.00;10.30;;;8.60;99.90;;;;;;6222314;23;20008;-83
2024/02/11 03:24:16;;;;;;;13.80;10.30;;;8.70;99.90;;;;;;6222011;23;20000;-82
2024/02/11 03:26:41;;;;;;;17.10;10.43;;;8.70;99.90;;;;;;6221434;23;20043;-82
2024/02/11 03:29:07;;;;;;;13.73;10.60;;;8.70;99.90;;;;;;6219581;23;20052;-82
2024/02/11 03:31:34;;;;;;;13.80;11.00;;;8.70;99.90;;;;;;6219289;23;20008;-82
2024/02/11 03:34:00;;;;;;;14.10;11.23;;;8.60;99.90;;;;;;6219646;23;20035;-83
2024/02/11 03:36:26;;;;;;;14.97;10.67;;;8.60;99.90;;;;;;6220147;23;20008;-82
2024/02/11 03:38:52;;;;;;;14.33;10.80;;;8.60;99.90;;;;;;6219696;23;20330;-82
2024/02/11 03:41:18;;;;;;;13.37;10.67;;;8.70;99.90;;;;;;6219436;23;20075;-83
2024/02/11 03:43:44;;;;;;;14.67;11.53;;;8.60;99.90;;;;;;6220208;23;20008;-83
2024/02/11 03:46:09;;;;;;;14.90;11.10;;;8.60;99.90;;;;;;6219866;23;20018;-82
2024/02/11 03:48:35;;;;;;;14.87;10.73;;;8.60;99.90;;;;;;6219156;23;20023;-83
2024/02/11 03:51:00;;;;;;;13.30;10.90;;;8.60;99.90;;;;;;6220294;23;20063;-83
2024/02/11 03:53:26;;;;;;;15.23;11.23;;;8.60;99.90;;;;;;6219036;23;20442;-83
2024/02/11 03:55:52;;;;;;;14.07;11.77;;;8.60;99.90;;;;;;6218994;23;19996;-82
2024/02/11 03:58:18;;;;;;;14.23;11.47;;;8.60;99.90;;;;;;6219160;23;20080;-83
2024/02/11 04:00:44;;;;;;;14.83;11.80;;;8.60;99.90;;;;;;6219726;23;20454;-83
2024/02/11 04:03:15;;;;;;;14.23;11.17;;;8.60;99.90;;;;;;6219694;23;20001;-83
2024/02/11 04:05:43;;;;;;;13.10;11.00;;;8.60;99.90;;;;;;6219289;23;20004;-83
2024/02/11 04:08:12;;;;;;;13.87;11.40;;;8.50;99.90;;;;;;6219559;23;20005;-83
2024/02/11 04:10:39;;;;;;;13.47;11.20;;;8.60;99.90;;;;;;6219664;23;20007;-83
2024/02/11 04:13:06;;;;;;;14.70;11.37;;;8.60;99.90;;;;;;6219238;23;20058;-82
2024/02/11 04:15:33;;;;;;;15.07;11.37;;;8.60;99.90;;;;;;6219219;23;20008;-83
2024/02/11 04:18:07;;;;;;;14.77;12.13;;;8.50;99.90;;;;;;6219793;23;20027;-83
2024/02/11 04:20:33;;;;;;;15.47;12.33;;;8.50;99.90;;;;;;6220210;23;20080;-82
2024/02/11 04:23:00;;;;;;;15.03;12.07;;;8.50;99.90;;;;;;6219707;23;20000;-83
2024/02/11 04:25:33;;;;;;;16.53;12.60;;;8.50;99.90;;;;;;6219015;23;20004;-83
2024/02/11 04:28:02;;;;;;;13.07;10.93;;;8.50;99.90;;;;;;6219439;23;19997;-83
2024/02/11 04:30:29;;;;;;;13.63;11.00;;;8.50;99.90;;;;;;6219847;23;20008;-83
2024/02/11 04:32:55;;;;;;;15.10;11.60;;;8.50;99.90;;;;;;6219410;23;20005;-82
2024/02/11 04:35:24;;;;;;;13.40;10.33;;;8.50;99.90;;;;;;6219869;23;20075;-83
2024/02/11 04:37:49;;;;;;;12.57;10.63;;;8.50;99.90;;;;;;6219431;23;20056;-83
2024/02/11 04:40:16;;;;;;;8.27;6.03;;;8.50;99.90;;;;;;6219616;23;20431;-83
2024/02/11 04:42:44;;;;;;;6.57;5.40;;;8.50;99.90;;;;;;6218354;23;20027;-83
2024/02/11 04:45:14;;;;;;;5.33;4.37;;;8.40;99.90;;;;;;6219042;23;20022;-83
2024/02/11 04:47:45;;;;;;;2.87;1.67;;;8.20;99.90;;;;;;6219210;23;20378;-83
2024/02/11 04:50:11;;;;;;;1.80;1.10;;;8.10;99.90;;;;;;6220767;23;20000;-83
2024/02/11 04:52:39;;;;;;;1.40;1.20;;;7.80;99.90;;;;;;6219472;23;20005;-82
2024/02/11 04:55:06;;;;;;;1.17;1.07;;;7.60;99.90;;;;;;6218779;23;19993;-82
2024/02/11 04:57:38;;;;;;;2.10;1.00;;;7.50;99.90;;;;;;6219235;23;20020;-82
2024/02/11 05:00:23;;;;;;;1.00;0.90;;;7.40;99.90;;;;;;6220125;23;20004;-82
2024/02/11 05:02:52;;;;;;;0.80;0.80;;;7.30;99.90;;;;;;6219811;23;20358;-82
2024/02/11 05:05:28;;;;;;;0.70;0.70;;;7.20;99.90;;;;;;6219456;23;19997;-83
2024/02/11 05:08:07;;;;;;;0.63;0.63;;;7.00;99.90;;;;;;6220124;23;19996;-83
2024/02/11 05:10:35;;;;;;;0.60;0.60;;;6.90;99.90;;;;;;6220024;23;20001;-83
2024/02/11 05:13:04;;;;;;;0.70;0.70;;;6.70;99.90;;;;;;6219778;23;20032;-83
2024/02/11 05:15:34;;;;;;;0.70;0.70;;;6.60;99.90;;;;;;6218796;23;20027;-83
2024/02/11 05:18:00;;;;;;;1.23;0.70;;;6.50;99.90;;;;;;6219873;23;20032;-82
2024/02/11 05:20:28;;;;;;;0.83;0.83;;;6.40;99.90;;;;;;6219283;23;20007;-83
2024/02/11 05:22:56;;;;;;;0.87;0.80;;;6.30;99.90;;;;;;6219475;23;20007;-83
2024/02/11 05:25:23;;;;;;;0.70;0.70;;;6.20;99.90;;;;;;6219197;23;20322;-83
2024/02/11 05:28:05;;;;;;;0.80;0.80;;;6.20;99.90;;;;;;6218944;23;20024;-82
2024/02/11 05:30:42;;;;;;;0.83;0.80;;;6.10;99.90;;;;;;6220080;23;20004;-83
2024/02/11 05:33:09;;;;;;;1.33;0.93;;;6.10;99.90;;;;;;6219219;23;20135;-82
2024/02/11 05:35:37;;;;;;;0.80;0.80;;;6.00;99.90;;;;;;6218073;23;20427;-82
2024/02/11 05:38:03;;;;;;;1.10;1.00;;;5.90;99.90;;;;;;6219223;23;20449;-83
2024/02/11 05:40:33;;;;;;;0.80;0.80;;;5.90;99.90;;;;;;6221473;23;20427;-82
2024/02/11 05:42:59;;;;;;;1.07;0.93;;;5.80;99.90;;;;;;6221655;23;20004;-83
2024/02/11 05:45:26;;;;;;;2.23;0.93;;;5.80;99.90;;;;;;6221151;23;20009;-83
2024/02/11 05:47:52;;;;;;;2.17;0.90;;;5.70;99.90;;;;;;6221191;23;20016;-82
2024/02/11 05:50:19;;;;;;;0.87;0.80;;;5.70;99.90;;;;;;6221601;23;20362;-83
2024/02/11 05:52:45;;;;;;;1.00;0.90;;;5.70;99.90;;;;;;6221488;23;20846;-82
2024/02/11 05:55:11;;;;;;;0.93;0.93;;;5.60;99.90;;;;;;6220533;23;20001;-82
2024/02/11 05:57:41;;;;;;;1.60;1.10;;;5.60;99.90;;;;;;6220780;23;20566;-82
2024/02/11 06:00:14;;;;;;;1.47;1.10;;;5.50;99.90;;;;;;6221027;23;20008;-82
2024/02/11 06:02:44;;;;;;;1.67;1.30;;;5.40;99.90;;;;;;6220066;23;20450;-82
2024/02/11 06:05:14;;;;;;;1.63;1.50;;;5.40;99.90;;;;;;6220286;23;20094;-83
2024/02/11 06:07:51;;;;;;;2.87;1.80;;;5.40;99.90;;;;;;6220126;23;20020;-82
2024/02/11 06:10:18;;;;;;;1.93;1.60;;;5.40;99.90;;;;;;6221209;23;20027;-82
2024/02/11 06:12:45;;;;;;;1.93;1.77;;;5.40;99.90;;;;;;6220405;23;20012;-82
2024/02/11 06:15:13;;;;;;;1.93;1.73;;;5.30;99.90;;;;;;6220712;23;20000;-82
2024/02/11 06:17:40;;;;;;;1.70;1.60;;;5.20;99.90;;;;;;6221095;23;20015;-82
2024/02/11 06:20:13;;;;;;;1.70;1.60;;;5.20;99.90;;;;;;6221349;23;20016;-83
2024/02/11 06:22:42;;;;;;;1.90;1.70;;;5.30;99.90;;;;;;6220477;23;20505;-82
2024/02/11 06:25:09;;;;;;;1.70;1.60;;;5.20;99.90;;;;;;6220280;23;20001;-83
2024/02/11 06:27:36;;;;;;;2.47;1.53;;;5.10;99.90;;;;;;6220284;23;20005;-82
2024/02/11 06:30:02;;;;;;;1.70;1.50;;;5.10;99.90;;;;;;6220884;23;20004;-83
2024/02/11 06:32:28;;;;;;;1.43;1.33;;;5.10;99.90;;;;;;6220448;23;20455;-82
2024/02/11 06:34:55;;;;;;;1.40;1.30;;;5.00;99.90;;;;;;6220741;23;20012;-82
2024/02/11 06:37:20;;;;;;;1.63;1.50;;;5.00;99.90;;;;;;6220220;23;20011;-82
2024/02/11 06:39:46;;;;;;;1.60;1.50;;;5.00;99.90;;;;;;6221250;23;20084;-83
2024/02/11 06:42:14;;;;;;;1.50;1.40;;;4.90;99.90;;;;;;6194487;23;20031;-82
2024/02/11 06:44:40;;;;;;;1.87;1.60;;;4.90;99.90;;;;;;6219818;23;20390;-82
2024/02/11 06:47:09;;;;;;;1.40;1.30;;;4.80;99.90;;;;;;6220384;23;20027;-82
2024/02/11 06:49:37;;;;;;;2.07;1.40;;;4.80;99.90;;;;;;6220756;23;20008;-82
2024/02/11 06:52:03;;;;;;;1.40;1.30;;;4.80;99.90;;;;;;6219578;23;20034;-82
2024/02/11 06:54:29;;;;;;;1.57;1.47;;;4.70;99.90;;;;;;6219272;23;20032;-82
2024/02/11 06:56:56;;;;;;;1.30;1.20;;;4.70;99.90;;;;;;6218565;23;20076;-82
2024/02/11 06:59:22;;;;;;;1.23;1.13;;;4.60;99.90;;;;;;6219249;23;19992;-82
2024/02/11 07:01:47;;;;;;;1.40;1.30;;;4.60;99.90;;;;;;6218361;23;20012;-82
2024/02/11 07:04:13;;;;;;;2.57;1.33;;;4.70;99.90;;;;;;6219167;23;20004;-81
2024/02/11 07:06:44;;;;;;;2.47;1.40;;;4.60;99.90;;;;;;6219512;23;20005;-82
2024/02/11 07:09:11;;;;;;;1.50;1.40;;;4.60;99.90;;;;;;6219591;23;20396;-82
2024/02/11 07:11:38;;;;;;;1.30;1.20;;;4.60;99.90;;;;;;6218981;23;20405;-82
2024/02/11 07:14:06;;;;;;;1.40;1.30;;;4.50;99.90;;;;;;6218297;23;20007;-82
2024/02/11 07:16:32;;;;;;;1.57;1.47;;;4.50;99.90;;;;;;6218194;23;20009;-82
2024/02/11 07:18:57;;;;;;;1.53;1.33;;;4.50;99.90;;;;;;6218829;23;20000;-82
2024/02/11 07:21:23;;;;;;;1.37;1.27;;;4.50;99.90;;;;;;6218599;23;20067;-81
2024/02/11 07:23:49;;;;;;;1.40;1.30;;;4.50;99.90;;;;;;6217460;23;20205;-84
2024/02/11 07:26:15;;;;;;;1.70;1.60;;;4.40;99.90;;;;;;6217133;23;20011;-83
2024/02/11 07:28:41;;;;;;;1.40;1.30;;;4.40;99.90;;;;;;6217956;23;20083;-82
2024/02/11 07:31:07;;;;;;;1.60;1.37;;;4.50;99.90;;;;;;6218534;23;20005;-81
2024/02/11 07:33:33;;;;;;;1.40;1.30;;;4.40;99.90;;;;;;6217406;23;20014;-83
2024/02/11 07:35:59;;;;;;;1.70;1.40;;;4.40;99.90;;;;;;6216995;23;19993;-82
2024/02/11 07:38:26;;;;;;;1.60;1.50;;;4.30;99.90;;;;;;6219554;23;20003;-81
2024/02/11 07:40:53;;;;;;;1.60;1.50;;;4.30;99.90;;;;;;6217870;23;20001;-81
2024/02/11 07:43:19;;;;;;;1.80;1.70;;;4.30;99.90;;;;;;6218446;23;20382;-80
2024/02/11 07:45:45;;;;;;;1.80;1.70;;;4.40;99.90;;;;;;6212367;23;19997;-81
2024/02/11 07:48:10;;;;;;;2.00;1.80;;;4.40;99.90;;;;;;6212459;23;20080;-79
2024/02/11 07:50:36;;;;;;;2.10;1.90;;;4.30;99.90;;;;;;6212377;23;20031;-79
2024/02/11 07:53:04;;;;;;;2.30;2.10;;;4.30;99.90;;;;;;6213679;23;20007;-80
2024/02/11 07:55:31;;;;;;;2.27;2.00;;;4.30;99.90;;;;;;6212478;23;20008;-79
2024/02/11 07:58:02;;;;;;;2.10;1.90;;;4.30;99.90;;;;;;6212377;23;20007;-79
2024/02/11 08:00:31;;;;;;;3.50;2.10;;;4.30;99.90;;;;;;6212760;23;20020;-80
2024/02/11 08:02:58;;;;;;;2.20;2.00;;;4.30;99.90;;;;;;6214816;23;19997;-80
2024/02/11 08:05:24;;;;;;;1.70;1.60;;;4.50;99.90;;;;;;6214237;23;19996;-80
2024/02/11 08:07:49;;;;;;;2.00;1.70;;;4.50;99.90;;;;;;6215082;23;20003;-82
2024/02/11 08:10:15;;;;;;;2.17;1.97;;;4.50;99.90;;;;;;6217143;23;20004;-72
2024/02/11 08:12:41;;;;;;;2.27;2.07;;;4.60;99.90;;;;;;6214506;23;20009;-78
2024/02/11 08:15:12;;;;;;;2.00;1.83;;;4.60;99.90;;;;;;6212447;23;20001;-79
2024/02/11 08:17:40;;;;;;;2.10;1.80;;;4.60;99.90;;;;;;6213233;23;20017;-79
2024/02/11 08:20:07;;;;;;;2.20;2.00;;;4.70;99.90;;;;;;6216883;23;20012;-79
2024/02/11 08:22:37;;;;;;;2.30;2.10;;;4.70;99.90;;;;;;6215719;23;20355;-79
2024/02/11 08:25:04;;;;;;;4.07;2.20;;;4.70;99.90;;;;;;6216253;23;20054;-79
2024/02/11 08:27:33;;;;;;;3.10;2.23;;;4.70;99.90;;;;;;6215993;23;20008;-79
2024/02/11 08:29:58;;;;;;;2.60;2.30;;;4.60;99.90;;;;;;6217649;23;20027;-79
2024/02/11 08:32:24;;;;;;;3.07;2.57;;;4.60;99.90;;;;;;6214364;23;20388;-78
2024/02/11 08:34:49;;;;;;;2.70;2.50;;;4.70;99.90;;;;;;6213476;23;20001;-78
2024/02/11 08:37:15;;;;;;;3.00;2.63;;;4.70;99.90;;;;;;6212290;23;20004;-78
2024/02/11 08:39:40;;;;;;;3.13;2.70;;;4.70;99.90;;;;;;6212078;23;20001;-79
2024/02/11 08:42:08;;;;;;;3.10;2.70;;;4.70;99.90;;;;;;6214177;23;20083;-79
2024/02/11 08:44:33;;;;;;;3.10;2.80;;;4.70;99.90;;;;;;6212888;23;20019;-79
2024/02/11 08:46:59;;;;;;;3.23;2.93;;;4.70;99.90;;;;;;6215020;23;20004;-79
2024/02/11 08:49:26;;;;;;;3.47;3.17;;;4.70;99.90;;;;;;6215673;23;20027;-79
2024/02/11 08:51:52;;;;;;;3.20;2.90;;;4.70;99.90;;;;;;6216738;23;20004;-79
2024/02/11 08:54:18;;;;;;;3.93;3.20;;;4.80;99.90;;;;;;6216032;23;20004;-78
2024/02/11 08:56:44;;;;;;;3.70;3.23;;;4.80;99.90;;;;;;6216841;23;20080;-79
2024/02/11 08:59:13;;;;;;;3.80;2.53;;;4.80;99.90;;;;;;6216245;23;20000;-77
2024/02/11 09:01:40;;;;;;;3.20;2.90;;;4.80;99.90;;;;;;6214022;23;20339;-77
2024/02/11 09:04:09;;;;;;;3.10;2.80;;;4.80;99.90;;;;;;6215180;23;20005;-80
2024/02/11 09:06:35;;;;;;;3.13;2.80;;;4.90;99.90;;;;;;6217660;23;20360;-80
2024/02/11 09:09:00;;;;;;;2.90;2.60;;;4.90;99.90;;;;;;6216697;23;20008;-80
2024/02/11 09:11:26;;;;;;;3.30;3.00;;;5.00;99.90;;;;;;6216702;23;20130;-80
2024/02/11 09:13:52;;;;;;;3.33;3.03;;;5.00;99.90;;;;;;6215342;23;20016;-76
2024/02/11 09:16:19;;;;;;;4.80;2.90;;;5.00;99.90;;;;;;6215135;23;20079;-76
2024/02/11 09:18:44;;;;;;;3.27;2.83;;;5.10;99.90;;;;;;6215012;23;20001;-77
2024/02/11 09:21:11;;;;;;;3.40;3.10;;;5.20;99.90;;;;;;6215168;23;20000;-77
2024/02/11 09:23:40;;;;;;;3.57;3.13;;;5.20;99.90;;;;;;6215344;23;20458;-77
2024/02/11 09:26:08;;;;;;;2.97;2.57;;;5.20;99.90;;;;;;6216150;23;20430;-77
2024/02/11 09:28:34;;;;;;;3.10;2.70;;;5.30;99.90;;;;;;6214801;23;20032;-73
2024/02/11 09:31:01;;;;;;;3.33;2.97;;;5.30;99.90;;;;;;6214025;23;20001;-78
2024/02/11 09:33:27;;;;;;;3.20;2.70;;;5.40;99.90;;;;;;6214824;23;20435;-77
2024/02/11 09:35:54;;;;;;;3.80;2.90;;;5.40;99.90;;;;;;6214139;23;20001;-77
2024/02/11 09:38:21;;;;;;;3.37;3.00;;;5.40;99.90;;;;;;6215240;23;20007;-77
2024/02/11 09:40:50;;;;;;;3.73;2.57;;;5.40;99.90;;;;;;6214930;23;20011;-78
2024/02/11 09:43:16;;;;;;;3.10;2.80;;;5.50;99.90;;;;;;6214673;23;20502;-78
2024/02/11 09:45:44;;;;;;;3.17;2.73;;;5.50;99.90;;;;;;6213761;23;20271;-78
2024/02/11 09:48:11;;;;;;;3.63;2.70;;;5.50;99.90;;;;;;6187895;23;20050;-78
2024/02/11 09:50:38;;;;;;;3.47;2.80;;;5.60;99.90;;;;;;6214424;23;20331;-77
2024/02/11 09:53:07;;;;;;;3.50;3.07;;;5.60;99.90;;;;;;6214066;23;20006;-75
2024/02/11 09:55:34;;;;;;;3.57;2.80;;;5.60;99.90;;;;;;6214208;23;20319;-76
2024/02/11 09:58:01;;;;;;;4.40;3.23;;;5.60;99.90;;;;;;6214464;23;20083;-76
2024/02/11 10:00:26;;;;;;;4.83;3.10;;;5.70;99.90;;;;;;6214348;23;20034;-77
2024/02/11 10:02:54;;;;;;;3.53;2.83;;;5.80;99.90;;;;;;6214007;23;20083;-76
2024/02/11 10:05:23;;;;;;;4.70;3.17;;;5.80;99.90;;;;;;6214031;23;20371;-77
2024/02/11 10:07:52;;;;;;;4.37;3.43;;;5.90;99.90;;;;;;6213897;23;20058;-76
2024/02/11 10:10:18;;;;;;;4.13;3.30;;;6.00;99.90;;;;;;6214474;23;20005;-77
2024/02/11 10:12:44;;;;;;;4.03;3.10;;;6.00;99.90;;;;;;6213381;23;20079;-77
2024/02/11 10:15:16;;;;;;;6.67;3.50;;;6.10;99.90;;;;;;6213300;23;20380;-77
2024/02/11 10:17:42;;;;;;;4.80;3.47;;;6.10;99.90;;;;;;6213357;23;20033;-77
2024/02/11 10:20:09;;;;;;;6.40;4.10;;;6.10;99.90;;;;;;6214023;23;20554;-77
2024/02/11 10:22:35;;;;;;;6.97;3.60;;;6.10;99.90;;;;;;6213296;23;20622;-77
2024/02/11 10:25:02;;;;;;;6.00;3.63;;;6.20;99.90;;;;;;6213455;23;20004;-77
2024/02/11 10:27:30;;;;;;;4.90;3.83;;;6.20;99.90;;;;;;6214232;23;20000;-77
2024/02/11 10:29:55;;;;;;;5.43;3.97;;;6.20;99.90;;;;;;6213108;23;20025;-77
2024/02/11 10:32:22;;;;;;;6.90;4.20;;;6.20;99.90;;;;;;6213811;23;20020;-77
2024/02/11 10:34:47;;;;;;;5.13;3.40;;;6.30;99.90;;;;;;6214152;23;20004;-77
2024/02/11 10:37:14;;;;;;;7.60;4.00;;;6.20;99.90;;;;;;6214310;23;20068;-77
2024/02/11 10:39:41;;;;;;;6.20;4.00;;;6.20;99.90;;;;;;6214328;23;19997;-77
2024/02/11 10:42:11;;;;;;;8.20;4.40;;;6.20;99.90;;;;;;6213745;23;20454;-76
2024/02/11 10:44:38;;;;;;;8.23;4.63;;;6.20;99.90;;;;;;6213312;23;20001;-76
2024/02/11 10:47:05;;;;;;;6.30;3.83;;;6.30;99.90;;;;;;6213912;23;20003;-75
2024/02/11 10:49:31;;;;;;;6.73;4.27;;;6.30;99.90;;;;;;6215753;23;20001;-76
2024/02/11 10:52:10;;;;;;;6.20;4.40;;;6.20;99.90;;;;;;6214191;23;20013;-76
2024/02/11 10:54:42;;;;;;;6.97;4.63;;;6.30;99.90;;;;;;6213740;23;20076;-76
2024/02/11 10:57:12;;;;;;;6.70;3.90;;;6.30;99.90;;;;;;6213941;23;20004;-76
2024/02/11 10:59:45;;;;;;;6.33;3.93;;;6.30;99.90;;;;;;6214724;23;19997;-76
2024/02/11 11:02:13;;;;;;;7.43;4.83;;;6.40;99.90;;;;;;6213931;23;20004;-77
2024/02/11 11:04:43;;;;;;;5.33;3.93;;;6.40;99.90;;;;;;6213616;23;20004;-77
2024/02/11 11:07:12;;;;;;;6.97;4.43;;;6.60;99.90;;;;;;6214568;23;19996;-77
2024/02/11 11:09:39;;;;;;;6.33;4.37;;;6.70;99.90;;;;;;6214442;23;20439;-76
2024/02/11 11:12:08;;;;;;;8.33;4.00;;;6.70;99.90;;;;;;6214121;23;20013;-76
2024/02/11 11:14:34;;;;;;;5.67;4.03;;;6.80;99.90;;;;;;6213506;23;20618;-76
2024/02/11 11:17:03;;;;;;;6.07;4.23;;;6.80;99.90;;;;;;6213728;23;20015;-76
2024/02/11 11:19:32;;;;;;;5.40;3.83;;;6.80;99.90;;;;;;6214422;23;20001;-76
2024/02/11 11:21:58;;;;;;;7.03;3.90;;;6.90;99.90;;;;;;6214196;23;20001;-76
2024/02/11 11:24:24;;;;;;;5.53;3.87;;;6.90;99.90;;;;;;6213458;23;20024;-77
2024/02/11 11:26:56;;;;;;;8.33;4.20;;;6.90;99.90;;;;;;6214007;23;20001;-77
2024/02/11 11:29:27;;;;;;;5.63;3.57;;;7.00;99.90;;;;;;6214074;23;20043;-77
2024/02/11 11:31:56;;;;;;;6.53;3.90;;;7.00;99.90;;;;;;6213886;23;20000;-76
2024/02/11 11:34:21;;;;;;;8.00;3.73;;;7.00;99.90;;;;;;6213327;23;20008;-77
2024/02/11 11:36:47;;;;;;;4.33;3.33;;;7.10;99.90;;;;;;6213553;23;20004;-77
2024/02/11 11:39:13;;;;;;;6.90;3.50;;;7.10;99.90;;;;;;6215195;23;19997;-77
2024/02/11 11:41:39;;;;;;;5.43;3.13;;;7.10;99.90;;;;;;6213989;23;20027;-75
2024/02/11 11:44:05;;;;;;;7.00;3.30;;;7.20;99.90;;;;;;6213494;23;20622;-74
2024/02/11 11:46:34;;;;;;;5.87;3.20;;;7.20;99.90;;;;;;6214152;23;20004;-77
2024/02/11 11:49:00;;;;;;;5.10;3.47;;;7.30;99.90;;;;;;6214136;23;20005;-77
2024/02/11 11:51:30;;;;;;;6.37;3.40;;;7.30;99.90;;;;;;6213938;23;20130;-77
2024/02/11 11:53:56;;;;;;;4.30;3.30;;;7.30;99.90;;;;;;6213051;23;20017;-77
2024/02/11 11:56:23;;;;;;;10.03;4.13;;;7.30;99.90;;;;;;6213387;23;20422;-77
2024/02/11 11:58:50;;;;;;;4.93;3.10;;;7.40;99.90;;;;;;6212732;23;20009;-77
2024/02/11 12:01:17;;;;;;;5.30;2.90;;;7.50;99.90;;;;;;6213457;23;20008;-77
2024/02/11 12:03:43;;;;;;;5.00;3.20;;;7.40;99.90;;;;;;6213527;23;20000;-77
2024/02/11 12:06:09;;;;;;;7.90;3.50;;;7.40;99.90;;;;;;6213372;23;20434;-77
2024/02/11 12:08:35;;;;;;;7.00;3.70;;;7.40;99.90;;;;;;6214297;23;20374;-76
2024/02/11 12:11:03;;;;;;;5.10;3.27;;;7.50;99.90;;;;;;6214065;23;20079;-76
2024/02/11 12:13:32;;;;;;;6.10;3.60;;;7.50;99.90;;;;;;6213275;23;20016;-76
2024/02/11 12:15:58;;;;;;;6.20;3.23;;;7.50;99.90;;;;;;6210830;23;20469;-76
2024/02/11 12:18:27;;;;;;;4.73;2.87;;;7.50;99.90;;;;;;6214012;23;20015;-76
2024/02/11 12:20:53;;;;;;;4.87;3.07;;;7.50;99.90;;;;;;6213476;23;20020;-76
2024/02/11 12:23:19;;;;;;;4.47;3.00;;;7.60;99.90;;;;;;6213557;23;20000;-76
2024/02/11 12:25:51;;;;;;;4.53;2.93;;;7.60;99.90;;;;;;6212819;23;20031;-76
2024/02/11 12:28:31;;;;;;;4.40;2.93;;;7.50;99.90;;;;;;6213741;23;20000;-76
2024/02/11 12:31:12;;;;;;;4.20;3.10;;;7.60;99.90;;;;;;6212901;23;20076;-76
2024/02/11 12:33:40;;;;;;;5.93;2.90;;;7.70;99.90;;;;;;6213202;23;20012;-76
2024/02/11 12:36:10;;;;;;;6.57;3.30;;;7.70;99.90;;;;;;6212304;23;20076;-76
2024/02/11 12:38:38;;;;;;;3.93;3.10;;;7.70;99.90;;;;;;6213182;23;20016;-76
2024/02/11 12:41:03;;;;;;;5.00;3.13;;;7.70;99.90;;;;;;6213233;23;20000;-76
2024/02/11 12:43:32;;;;;;;6.07;3.20;;;7.60;99.90;;;;;;6213271;23;20377;-76
2024/02/11 12:45:57;;;;;;;4.23;3.20;;;7.60;99.90;;;;;;6212239;23;20001;-76
2024/02/11 12:48:23;;;;;;;4.50;3.03;;;7.70;99.90;;;;;;6213102;23;20127;-76
2024/02/11 12:50:49;;;;;;;4.23;3.13;;;7.70;99.90;;;;;;6212384;23;20521;-75
2024/02/11 12:53:17;;;;;;;4.37;2.80;;;7.70;99.90;;;;;;6212868;23;20454;-76